sensor_id;sensor_type;location;lat;lon;timestamp;temperature;humidity
28336;DHT22;15592;53.656;7.276;2024-01-15T00:01:56;3.60;99.90
28336;DHT22;15592;53.656;7.276;2024-01-15T00:04:21;3.70;99.90
28336;DHT22;15592;53.656;7.276;2024-01-15T00:06:49;3.70;99.90
28336;DHT22;15592;53.656;7.276;2024-01-15T00:09:18;3.70;99.90
28336;DHT22;15592;53.656;7.276;2024-01-15T00:11:43;3.70;99.90
28336;DHT22;15592;53.656;7.276;2024-01-15T00:14:09;3.70;99.90
28336;DHT22;15592;53.656;7.276;2024-01-15T00:16:35;3.70;99.90
28336;DHT22;15592;53.656;7.276;2024-01-15T00:19:00;3.60;99.90
28336;DHT22;15592;53.656;7.276;2024-01-15T00:21:26;3.60;99.90
28336;DHT22;15592;53.656;7.276;2024-01-15T00:23:53;3.60;99.90
28336;DHT22;15592;53.656;7.276;2024-01-15T00:26:19;3.40;99.90
28336;DHT22;15592;53.656;7.276;2024-01-15T00:28:44;3.30;99.90
28336;DHT22;15592;53.656;7.276;2024-01-15T00:31:10;3.20;99.90
28336;DHT22;15592;53.656;7.276;2024-01-15T00:33:36;3.20;99.90
28336;DHT22;15592;53.656;7.276;2024-01-15T00:36:01;3.20;99.90
28336;DHT22;15592;53.656;7.276;2024-01-15T00:38:27;3.20;99.90
28336;DHT22;15592;53.656;7.276;2024-01-15T00:40:52;3.20;99.90
28336;DHT22;15592;53.656;7.276;2024-01-15T00:43:18;3.20;99.90
28336;DHT22;15592;53.656;7.276;2024-01-15T00:45:45;3.30;99.90
28336;DHT22;15592;53.656;7.276;2024-01-15T00:48:10;3.40;99.90
28336;DHT22;15592;53.656;7.276;2024-01-15T00:50:36;3.40;99.90
28336;DHT22;15592;53.656;7.276;2024-01-15T00:53:02;3.40;99.90
28336;DHT22;15592;53.656;7.276;2024-01-15T00:55:28;3.40;99.90
28336;DHT22;15592;53.656;7.276;2024-01-15T00:57:54;3.50;99.90
28336;DHT22;15592;53.656;7.276;2024-01-15T01:00:20;3.50;99.90
28336;DHT22;15592;53.656;7.276;2024-01-15T01:02:46;3.50;99.90
28336;DHT22;15592;53.656;7.276;2024-01-15T01:05:11;3.60;99.90
28336;DHT22;15592;53.656;7.276;2024-01-15T01:07:37;3.60;99.90
28336;DHT22;15592;53.656;7.276;2024-01-15T01:10:03;3.60;99.90
28336;DHT22;15592;53.656;7.276;2024-01-15T01:12:29;3.60;99.90
28336;DHT22;15592;53.656;7.276;2024-01-15T01:14:55;3.60;99.90
28336;DHT22;15592;53.656;7.276;2024-01-15T01:17:21;3.60;99.90
28336;DHT22;15592;53.656;7.276;2024-01-15T01:19:47;3.60;99.90
28336;DHT22;15592;53.656;7.276;2024-01-15T01:22:12;3.70;99.90
28336;DHT22;15592;53.656;7.276;2024-01-15T01:24:38;3.70;99.90
28336;DHT22;15592;53.656;7.276;2024-01-15T01:27:04;3.70;99.90
28336;DHT22;15592;53.656;7.276;2024-01-15T01:29:29;3.70;99.90
28336;DHT22;15592;53.656;7.276;2024-01-15T01:31:55;3.70;99.90
28336;DHT22;15592;53.656;7.276;2024-01-15T01:34:22;3.80;99.90
28336;DHT22;15592;53.656;7.276;2024-01-15T01:36:47;3.70;99.90
28336;DHT22;15592;53.656;7.276;2024-01-15T01:39:13;3.50;99.90
28336;DHT22;15592;53.656;7.276;2024-01-15T01:41:39;3.40;99.90
28336;DHT22;15592;53.656;7.276;2024-01-15T01:44:05;3.40;99.90
28336;DHT22;15592;53.656;7.276;2024-01-15T01:46:31;3.40;99.90
28336;DHT22;15592;53.656;7.276;2024-01-15T01:48:57;3.50;99.90
28336;DHT22;15592;53.656;7.276;2024-01-15T01:51:24;3.50;99.90
28336;DHT22;15592;53.656;7.276;2024-01-15T01:53:50;3.60;99.90
28336;DHT22;15592;53.656;7.276;2024-01-15T01:56:17;3.60;99.90
28336;DHT22;15592;53.656;7.276;2024-01-15T01:58:43;3.60;99.90
28336;DHT22;15592;53.656;7.276;2024-01-15T02:01:11;3.70;99.90
28336;DHT22;15592;53.656;7.276;2024-01-15T02:03:36;3.70;99.90
28336;DHT22;15592;53.656;7.276;2024-01-15T02:06:02;3.70;99.90
28336;DHT22;15592;53.656;7.276;2024-01-15T02:08:29;3.80;99.90
28336;DHT22;15592;53.656;7.276;2024-01-15T02:10:55;3.80;99.90
28336;DHT22;15592;53.656;7.276;2024-01-15T02:13:21;3.80;99.90
28336;DHT22;15592;53.656;7.276;2024-01-15T02:15:46;3.80;99.90
28336;DHT22;15592;53.656;7.276;2024-01-15T02:18:12;3.90;99.90
28336;DHT22;15592;53.656;7.276;2024-01-15T02:20:38;3.90;99.90
28336;DHT22;15592;53.656;7.276;2024-01-15T02:23:14;3.90;99.90
28336;DHT22;15592;53.656;7.276;2024-01-15T02:25:44;3.90;99.90
28336;DHT22;15592;53.656;7.276;2024-01-15T02:28:15;4.00;99.90
28336;DHT22;15592;53.656;7.276;2024-01-15T02:30:42;4.00;99.90
28336;DHT22;15592;53.656;7.276;2024-01-15T02:33:09;4.00;99.90
28336;DHT22;15592;53.656;7.276;2024-01-15T02:35:35;4.00;99.90
28336;DHT22;15592;53.656;7.276;2024-01-15T02:38:07;4.00;99.90
28336;DHT22;15592;53.656;7.276;2024-01-15T02:40:33;3.90;99.90
28336;DHT22;15592;53.656;7.276;2024-01-15T02:42:59;3.90;99.90
28336;DHT22;15592;53.656;7.276;2024-01-15T02:45:24;3.90;99.90
28336;DHT22;15592;53.656;7.276;2024-01-15T02:47:50;4.00;99.90
28336;DHT22;15592;53.656;7.276;2024-01-15T02:50:16;3.90;99.90
28336;DHT22;15592;53.656;7.276;2024-01-15T10:50:54;3.80;99.90
28336;DHT22;15592;53.656;7.276;2024-01-15T10:53:20;4.00;99.90
28336;DHT22;15592;53.656;7.276;2024-01-15T10:55:47;4.20;99.90
28336;DHT22;15592;53.656;7.276;2024-01-15T10:58:16;4.40;99.90
28336;DHT22;15592;53.656;7.276;2024-01-15T11:00:43;4.40;99.90
28336;DHT22;15592;53.656;7.276;2024-01-15T11:03:09;4.30;99.90
28336;DHT22;15592;53.656;7.276;2024-01-15T11:05:41;4.20;99.90
28336;DHT22;15592;53.656;7.276;2024-01-15T11:08:08;4.00;99.90
28336;DHT22;15592;53.656;7.276;2024-01-15T11:10:44;3.90;99.90
28336;DHT22;15592;53.656;7.276;2024-01-15T11:13:20;3.80;99.90
28336;DHT22;15592;53.656;7.276;2024-01-15T11:18:41;3.60;99.90
28336;DHT22;15592;53.656;7.276;2024-01-15T11:26:35;3.60;99.90
28336;DHT22;15592;53.656;7.276;2024-01-15T12:26:14;2.80;99.90
28336;DHT22;15592;53.656;7.276;2024-01-15T12:28:39;2.80;99.90
28336;DHT22;15592;53.656;7.276;2024-01-15T12:31:05;2.70;99.90
28336;DHT22;15592;53.656;7.276;2024-01-15T12:33:31;2.70;99.90
28336;DHT22;15592;53.656;7.276;2024-01-15T12:35:56;2.70;99.90
28336;DHT22;15592;53.656;7.276;2024-01-15T12:38:22;2.60;99.90
28336;DHT22;15592;53.656;7.276;2024-01-15T12:40:48;2.60;99.90
28336;DHT22;15592;53.656;7.276;2024-01-15T12:43:14;2.60;99.90
28336;DHT22;15592;53.656;7.276;2024-01-15T12:45:40;2.60;99.90
28336;DHT22;15592;53.656;7.276;2024-01-15T12:48:06;2.60;99.90
28336;DHT22;15592;53.656;7.276;2024-01-15T12:50:33;2.70;99.90
28336;DHT22;15592;53.656;7.276;2024-01-15T12:52:59;2.70;99.90
28336;DHT22;15592;53.656;7.276;2024-01-15T12:55:27;2.70;99.90
28336;DHT22;15592;53.656;7.276;2024-01-15T12:57:53;2.70;99.90
28336;DHT22;15592;53.656;7.276;2024-01-15T13:00:20;2.80;99.90
28336;DHT22;15592;53.656;7.276;2024-01-15T13:02:46;2.70;99.90
28336;DHT22;15592;53.656;7.276;2024-01-15T13:05:12;2.80;99.90
28336;DHT22;15592;53.656;7.276;2024-01-15T13:07:38;2.80;99.90
28336;DHT22;15592;53.656;7.276;2024-01-15T13:10:04;2.90;99.90
28336;DHT22;15592;53.656;7.276;2024-01-15T13:12:30;2.90;99.90
28336;DHT22;15592;53.656;7.276;2024-01-15T13:14:57;2.90;99.90
28336;DHT22;15592;53.656;7.276;2024-01-15T13:17:23;3.00;99.90
28336;DHT22;15592;53.656;7.276;2024-01-15T13:19:49;3.00;99.90
28336;DHT22;15592;53.656;7.276;2024-01-15T13:22:14;3.10;99.90
28336;DHT22;15592;53.656;7.276;2024-01-15T13:24:41;3.30;99.90
28336;DHT22;15592;53.656;7.276;2024-01-15T13:27:06;3.40;99.90
28336;DHT22;15592;53.656;7.276;2024-01-15T13:29:32;3.50;99.90
28336;DHT22;15592;53.656;7.276;2024-01-15T13:31:59;3.60;99.90
28336;DHT22;15592;53.656;7.276;2024-01-15T13:34:25;3.60;99.90
28336;DHT22;15592;53.656;7.276;2024-01-15T13:36:50;3.60;99.90
28336;DHT22;15592;53.656;7.276;2024-01-15T13:39:16;3.60;99.90
28336;DHT22;15592;53.656;7.276;2024-01-15T13:41:46;3.50;99.90
28336;DHT22;15592;53.656;7.276;2024-01-15T13:44:12;3.50;99.90
28336;DHT22;15592;53.656;7.276;2024-01-15T13:46:37;3.40;99.90
28336;DHT22;15592;53.656;7.276;2024-01-15T13:49:03;3.30;99.90
28336;DHT22;15592;53.656;7.276;2024-01-15T13:51:31;3.30;99.90
28336;DHT22;15592;53.656;7.276;2024-01-15T13:53:57;3.20;99.90
28336;DHT22;15592;53.656;7.276;2024-01-15T13:56:22;3.20;99.90
28336;DHT22;15592;53.656;7.276;2024-01-15T13:58:48;3.20;99.90
28336;DHT22;15592;53.656;7.276;2024-01-15T14:01:14;3.20;99.90
28336;DHT22;15592;53.656;7.276;2024-01-15T14:03:39;3.10;99.90
28336;DHT22;15592;53.656;7.276;2024-01-15T14:06:05;3.10;99.90
28336;DHT22;15592;53.656;7.276;2024-01-15T14:08:35;3.20;99.90
28336;DHT22;15592;53.656;7.276;2024-01-15T14:11:02;3.20;99.90
28336;DHT22;15592;53.656;7.276;2024-01-15T14:13:28;3.20;99.90
28336;DHT22;15592;53.656;7.276;2024-01-15T14:15:53;3.10;99.90
28336;DHT22;15592;53.656;7.276;2024-01-15T14:18:19;3.20;99.90
28336;DHT22;15592;53.656;7.276;2024-01-15T14:20:44;3.20;99.90
28336;DHT22;15592;53.656;7.276;2024-01-15T14:23:11;3.30;99.90
28336;DHT22;15592;53.656;7.276;2024-01-15T14:25:37;3.30;99.90
28336;DHT22;15592;53.656;7.276;2024-01-15T14:28:03;3.20;99.90
28336;DHT22;15592;53.656;7.276;2024-01-15T14:30:28;3.20;99.90
28336;DHT22;15592;53.656;7.276;2024-01-15T14:32:54;3.20;99.90
28336;DHT22;15592;53.656;7.276;2024-01-15T14:35:19;3.10;99.90
28336;DHT22;15592;53.656;7.276;2024-01-15T14:37:45;3.10;99.90
28336;DHT22;15592;53.656;7.276;2024-01-15T14:40:11;3.10;99.90
28336;DHT22;15592;53.656;7.276;2024-01-15T14:42:37;3.00;99.90
28336;DHT22;15592;53.656;7.276;2024-01-15T14:45:03;3.00;99.90
28336;DHT22;15592;53.656;7.276;2024-01-15T14:47:33;3.00;99.90
28336;DHT22;15592;53.656;7.276;2024-01-15T14:50:00;3.00;99.90
28336;DHT22;15592;53.656;7.276;2024-01-15T14:52:26;3.00;99.90
28336;DHT22;15592;53.656;7.276;2024-01-15T14:54:52;3.00;99.90
28336;DHT22;15592;53.656;7.276;2024-01-15T14:57:17;3.00;99.90
28336;DHT22;15592;53.656;7.276;2024-01-15T14:59:43;2.90;99.90
28336;DHT22;15592;53.656;7.276;2024-01-15T15:02:09;2.90;99.90
28336;DHT22;15592;53.656;7.276;2024-01-15T15:04:34;2.90;99.90
28336;DHT22;15592;53.656;7.276;2024-01-15T15:07:00;2.90;99.90
28336;DHT22;15592;53.656;7.276;2024-01-15T15:09:25;2.80;99.90
28336;DHT22;15592;53.656;7.276;2024-01-15T15:11:51;2.90;99.90
28336;DHT22;15592;53.656;7.276;2024-01-15T15:14:18;2.90;99.90
28336;DHT22;15592;53.656;7.276;2024-01-15T15:16:43;2.90;99.90
28336;DHT22;15592;53.656;7.276;2024-01-15T15:19:09;2.90;99.90
28336;DHT22;15592;53.656;7.276;2024-01-15T15:21:35;2.90;99.90
28336;DHT22;15592;53.656;7.276;2024-01-15T15:24:01;2.90;99.90
28336;DHT22;15592;53.656;7.276;2024-01-15T15:26:27;2.90;99.90
28336;DHT22;15592;53.656;7.276;2024-01-15T15:28:52;2.90;99.90
28336;DHT22;15592;53.656;7.276;2024-01-15T15:31:18;2.90;99.90
28336;DHT22;15592;53.656;7.276;2024-01-15T15:33:43;3.00;99.90
28336;DHT22;15592;53.656;7.276;2024-01-15T15:36:10;3.00;99.90
28336;DHT22;15592;53.656;7.276;2024-01-15T15:38:35;3.00;99.90
28336;DHT22;15592;53.656;7.276;2024-01-15T15:41:01;3.00;99.90
28336;DHT22;15592;53.656;7.276;2024-01-15T15:43:28;3.00;99.90
28336;DHT22;15592;53.656;7.276;2024-01-15T15:45:54;3.00;99.90
28336;DHT22;15592;53.656;7.276;2024-01-15T15:48:20;3.00;99.90
28336;DHT22;15592;53.656;7.276;2024-01-15T15:50:46;3.00;99.90
28336;DHT22;15592;53.656;7.276;2024-01-15T15:53:12;3.00;99.90
28336;DHT22;15592;53.656;7.276;2024-01-15T15:55:37;3.00;99.90
28336;DHT22;15592;53.656;7.276;2024-01-15T15:58:04;2.90;99.90
28336;DHT22;15592;53.656;7.276;2024-01-15T16:00:30;2.90;99.90
28336;DHT22;15592;53.656;7.276;2024-01-15T16:02:56;2.90;99.90
28336;DHT22;15592;53.656;7.276;2024-01-15T16:05:22;2.90;99.90
28336;DHT22;15592;53.656;7.276;2024-01-15T16:07:47;2.90;99.90
28336;DHT22;15592;53.656;7.276;2024-01-15T16:10:13;2.90;99.90
28336;DHT22;15592;53.656;7.276;2024-01-15T16:12:40;2.90;99.90
28336;DHT22;15592;53.656;7.276;2024-01-15T16:15:18;2.90;99.90
28336;DHT22;15592;53.656;7.276;2024-01-15T16:17:45;2.90;99.90
28336;DHT22;15592;53.656;7.276;2024-01-15T16:20:10;2.90;99.90
28336;DHT22;15592;53.656;7.276;2024-01-15T16:22:36;2.90;99.90
28336;DHT22;15592;53.656;7.276;2024-01-15T16:25:02;3.00;99.90
28336;DHT22;15592;53.656;7.276;2024-01-15T16:27:27;3.00;99.90
28336;DHT22;15592;53.656;7.276;2024-01-15T16:29:53;3.10;99.90
28336;DHT22;15592;53.656;7.276;2024-01-15T16:32:18;3.10;99.90
28336;DHT22;15592;53.656;7.276;2024-01-15T16:34:44;3.10;99.90
28336;DHT22;15592;53.656;7.276;2024-01-15T16:37:09;3.10;99.90
28336;DHT22;15592;53.656;7.276;2024-01-15T16:39:35;3.10;99.90
28336;DHT22;15592;53.656;7.276;2024-01-15T16:42:00;3.10;99.90
28336;DHT22;15592;53.656;7.276;2024-01-15T16:44:26;3.10;99.90
28336;DHT22;15592;53.656;7.276;2024-01-15T16:46:52;3.10;99.90
28336;DHT22;15592;53.656;7.276;2024-01-15T16:49:17;3.20;99.90
28336;DHT22;15592;53.656;7.276;2024-01-15T16:51:43;3.20;99.90
28336;DHT22;15592;53.656;7.276;2024-01-15T16:54:09;3.20;99.90
28336;DHT22;15592;53.656;7.276;2024-01-15T16:56:34;3.20;99.90
28336;DHT22;15592;53.656;7.276;2024-01-15T16:59:00;3.30;99.90
28336;DHT22;15592;53.656;7.276;2024-01-15T17:01:25;3.30;99.90
28336;DHT22;15592;53.656;7.276;2024-01-15T17:03:51;3.30;99.90
28336;DHT22;15592;53.656;7.276;2024-01-15T17:06:18;3.40;99.90
28336;DHT22;15592;53.656;7.276;2024-01-15T17:08:43;3.40;99.90
28336;DHT22;15592;53.656;7.276;2024-01-15T17:11:09;3.50;99.90
28336;DHT22;15592;53.656;7.276;2024-01-15T17:13:35;3.50;99.90
28336;DHT22;15592;53.656;7.276;2024-01-15T17:16:00;3.40;99.90
28336;DHT22;15592;53.656;7.276;2024-01-15T17:18:27;3.40;99.90
28336;DHT22;15592;53.656;7.276;2024-01-15T17:20:53;3.30;99.90
28336;DHT22;15592;53.656;7.276;2024-01-15T17:23:19;3.20;99.90
28336;DHT22;15592;53.656;7.276;2024-01-15T17:25:44;3.10;99.90
28336;DHT22;15592;53.656;7.276;2024-01-15T17:28:10;3.10;99.90
28336;DHT22;15592;53.656;7.276;2024-01-15T17:30:36;3.00;99.90
28336;DHT22;15592;53.656;7.276;2024-01-15T17:33:01;2.90;99.90
28336;DHT22;15592;53.656;7.276;2024-01-15T17:35:27;2.90;99.90
28336;DHT22;15592;53.656;7.276;2024-01-15T17:37:53;2.90;99.90
28336;DHT22;15592;53.656;7.276;2024-01-15T17:40:19;3.00;99.90
28336;DHT22;15592;53.656;7.276;2024-01-15T17:42:44;3.00;99.90
28336;DHT22;15592;53.656;7.276;2024-01-15T17:45:12;3.20;99.90
28336;DHT22;15592;53.656;7.276;2024-01-15T17:47:38;3.20;99.90
28336;DHT22;15592;53.656;7.276;2024-01-15T17:50:04;3.30;99.90
28336;DHT22;15592;53.656;7.276;2024-01-15T17:52:29;3.30;99.90
28336;DHT22;15592;53.656;7.276;2024-01-15T17:54:55;3.30;99.90
28336;DHT22;15592;53.656;7.276;2024-01-15T17:57:26;3.30;99.90
28336;DHT22;15592;53.656;7.276;2024-01-15T17:59:55;3.20;99.90
28336;DHT22;15592;53.656;7.276;2024-01-15T18:02:21;3.20;99.90
28336;DHT22;15592;53.656;7.276;2024-01-15T18:04:56;3.20;99.90
28336;DHT22;15592;53.656;7.276;2024-01-15T18:07:45;3.20;99.90
28336;DHT22;15592;53.656;7.276;2024-01-15T18:10:10;3.30;99.90
28336;DHT22;15592;53.656;7.276;2024-01-15T18:12:37;3.30;99.90
28336;DHT22;15592;53.656;7.276;2024-01-15T18:15:02;3.30;99.90
28336;DHT22;15592;53.656;7.276;2024-01-15T18:17:28;3.40;99.90
